sensor_id;sensor_type;location;lat;lon;timestamp;P1;durP1;ratioP1;P2;durP2;ratioP2
70102;SDS011;57470;50.034;15.256;2022-12-18T00:01:26;5.38;;;2.65;;
70102;SDS011;57470;50.034;15.256;2022-12-18T00:03:52;7.43;;;4.05;;
70102;SDS011;57470;50.034;15.256;2022-12-18T00:06:18;10.85;;;5.15;;
70102;SDS011;57470;50.034;15.256;2022-12-18T00:08:47;3.03;;;1.70;;
70102;SDS011;57470;50.034;15.256;2022-12-18T00:11:23;6.03;;;2.83;;
70102;SDS011;57470;50.034;15.256;2022-12-18T00:13:51;4.97;;;2.22;;
70102;SDS011;57470;50.034;15.256;2022-12-18T00:16:17;9.73;;;3.35;;
70102;SDS011;57470;50.034;15.256;2022-12-18T00:18:46;8.02;;;2.95;;
70102;SDS011;57470;50.034;15.256;2022-12-18T00:21:16;3.37;;;1.83;;
70102;SDS011;57470;50.034;15.256;2022-12-18T00:23:42;6.00;;;3.65;;
70102;SDS011;57470;50.034;15.256;2022-12-18T00:26:19;4.72;;;2.50;;
70102;SDS011;57470;50.034;15.256;2022-12-18T00:28:47;3.53;;;2.10;;
70102;SDS011;57470;50.034;15.256;2022-12-18T00:31:15;17.30;;;4.72;;
70102;SDS011;57470;50.034;15.256;2022-12-18T00:33:42;6.65;;;2.10;;
70102;SDS011;57470;50.034;15.256;2022-12-18T00:36:12;4.30;;;2.63;;
70102;SDS011;57470;50.034;15.256;2022-12-18T00:38:43;9.63;;;3.13;;
70102;SDS011;57470;50.034;15.256;2022-12-18T00:41:09;7.35;;;3.05;;
70102;SDS011;57470;50.034;15.256;2022-12-18T00:43:37;5.27;;;2.50;;
70102;SDS011;57470;50.034;15.256;2022-12-18T00:46:03;10.43;;;5.72;;
70102;SDS011;57470;50.034;15.256;2022-12-18T00:48:30;11.35;;;8.68;;
70102;SDS011;57470;50.034;15.256;2022-12-18T00:50:55;13.50;;;6.30;;
70102;SDS011;57470;50.034;15.256;2022-12-18T00:53:21;6.47;;;3.75;;
70102;SDS011;57470;50.034;15.256;2022-12-18T00:55:46;9.20;;;4.47;;
70102;SDS011;57470;50.034;15.256;2022-12-18T00:58:12;7.13;;;4.22;;
70102;SDS011;57470;50.034;15.256;2022-12-18T01:00:40;7.93;;;2.33;;
70102;SDS011;57470;50.034;15.256;2022-12-18T01:03:06;5.00;;;4.25;;
70102;SDS011;57470;50.034;15.256;2022-12-18T01:05:32;10.65;;;3.10;;
70102;SDS011;57470;50.034;15.256;2022-12-18T01:07:57;8.20;;;3.97;;
70102;SDS011;57470;50.034;15.256;2022-12-18T01:10:24;3.28;;;1.95;;
70102;SDS011;57470;50.034;15.256;2022-12-18T01:12:50;7.17;;;4.13;;
70102;SDS011;57470;50.034;15.256;2022-12-18T01:15:15;9.18;;;5.63;;
70102;SDS011;57470;50.034;15.256;2022-12-18T01:17:41;5.77;;;3.43;;
70102;SDS011;57470;50.034;15.256;2022-12-18T01:20:07;8.30;;;4.45;;
70102;SDS011;57470;50.034;15.256;2022-12-18T01:22:34;6.50;;;3.40;;
70102;SDS011;57470;50.034;15.256;2022-12-18T01:25:00;7.40;;;4.10;;
70102;SDS011;57470;50.034;15.256;2022-12-18T01:27:25;11.60;;;7.03;;
70102;SDS011;57470;50.034;15.256;2022-12-18T01:29:51;6.90;;;3.93;;
70102;SDS011;57470;50.034;15.256;2022-12-18T01:32:16;6.93;;;5.27;;
70102;SDS011;57470;50.034;15.256;2022-12-18T01:34:42;10.73;;;3.60;;
70102;SDS011;57470;50.034;15.256;2022-12-18T01:37:07;13.90;;;5.07;;
70102;SDS011;57470;50.034;15.256;2022-12-18T01:39:32;12.35;;;3.05;;
70102;SDS011;57470;50.034;15.256;2022-12-18T01:41:58;10.57;;;5.45;;
70102;SDS011;57470;50.034;15.256;2022-12-18T01:49:49;4.50;;;2.35;;
70102;SDS011;57470;50.034;15.256;2022-12-18T01:52:15;6.68;;;3.85;;
70102;SDS011;57470;50.034;15.256;2022-12-18T01:54:42;5.53;;;3.27;;
70102;SDS011;57470;50.034;15.256;2022-12-18T01:57:07;5.25;;;3.10;;
70102;SDS011;57470;50.034;15.256;2022-12-18T01:59:33;16.63;;;4.73;;
70102;SDS011;57470;50.034;15.256;2022-12-18T02:02:00;7.63;;;6.07;;
70102;SDS011;57470;50.034;15.256;2022-12-18T02:04:27;10.68;;;2.97;;
70102;SDS011;57470;50.034;15.256;2022-12-18T02:17:58;16.00;;;8.00;;
70102;SDS011;57470;50.034;15.256;2022-12-18T02:20:47;11.90;;;5.38;;
70102;SDS011;57470;50.034;15.256;2022-12-18T02:26:23;11.00;;;3.90;;
70102;SDS011;57470;50.034;15.256;2022-12-18T02:28:56;5.60;;;2.90;;
70102;SDS011;57470;50.034;15.256;2022-12-18T02:31:28;13.43;;;7.95;;
70102;SDS011;57470;50.034;15.256;2022-12-18T02:34:01;10.63;;;5.55;;
70102;SDS011;57470;50.034;15.256;2022-12-18T02:36:29;16.85;;;5.65;;
70102;SDS011;57470;50.034;15.256;2022-12-18T02:38:57;6.67;;;4.90;;
70102;SDS011;57470;50.034;15.256;2022-12-18T02:41:24;8.48;;;5.35;;
70102;SDS011;57470;50.034;15.256;2022-12-18T02:43:55;13.77;;;4.63;;
70102;SDS011;57470;50.034;15.256;2022-12-18T02:46:31;16.35;;;6.53;;
70102;SDS011;57470;50.034;15.256;2022-12-18T02:49:06;9.75;;;3.90;;
70102;SDS011;57470;50.034;15.256;2022-12-18T02:52:01;13.77;;;4.07;;
70102;SDS011;57470;50.034;15.256;2022-12-18T02:54:41;11.95;;;9.60;;
70102;SDS011;57470;50.034;15.256;2022-12-18T02:57:16;6.63;;;3.08;;
70102;SDS011;57470;50.034;15.256;2022-12-18T02:59:56;8.15;;;3.75;;
70102;SDS011;57470;50.034;15.256;2022-12-18T03:02:32;4.38;;;2.78;;
70102;SDS011;57470;50.034;15.256;2022-12-18T03:05:13;11.93;;;6.30;;
70102;SDS011;57470;50.034;15.256;2022-12-18T03:07:58;5.88;;;3.53;;
70102;SDS011;57470;50.034;15.256;2022-12-18T03:10:32;5.32;;;2.97;;
70102;SDS011;57470;50.034;15.256;2022-12-18T03:13:51;7.22;;;4.60;;
70102;SDS011;57470;50.034;15.256;2022-12-18T03:15:56;10.52;;;5.03;;
70102;SDS011;57470;50.034;15.256;2022-12-18T03:18:31;8.63;;;4.70;;
70102;SDS011;57470;50.034;15.256;2022-12-18T03:21:02;2.78;;;1.70;;
70102;SDS011;57470;50.034;15.256;2022-12-18T03:23:32;5.15;;;3.55;;
70102;SDS011;57470;50.034;15.256;2022-12-18T03:26:05;6.70;;;3.45;;
70102;SDS011;57470;50.034;15.256;2022-12-18T03:28:36;2.40;;;1.15;;
70102;SDS011;57470;50.034;15.256;2022-12-18T03:31:07;5.77;;;3.30;;
70102;SDS011;57470;50.034;15.256;2022-12-18T03:36:18;10.32;;;4.18;;
70102;SDS011;57470;50.034;15.256;2022-12-18T03:38:44;9.63;;;3.97;;
70102;SDS011;57470;50.034;15.256;2022-12-18T03:47:11;10.80;;;6.30;;
70102;SDS011;57470;50.034;15.256;2022-12-18T03:55:46;5.93;;;3.72;;
70102;SDS011;57470;50.034;15.256;2022-12-18T03:58:15;6.70;;;3.40;;
70102;SDS011;57470;50.034;15.256;2022-12-18T04:00:44;10.33;;;4.97;;
70102;SDS011;57470;50.034;15.256;2022-12-18T04:03:10;7.45;;;3.72;;
70102;SDS011;57470;50.034;15.256;2022-12-18T04:05:38;3.40;;;1.40;;
70102;SDS011;57470;50.034;15.256;2022-12-18T04:08:05;6.35;;;3.60;;
70102;SDS011;57470;50.034;15.256;2022-12-18T04:10:31;5.10;;;4.28;;
70102;SDS011;57470;50.034;15.256;2022-12-18T04:12:57;16.00;;;4.47;;
70102;SDS011;57470;50.034;15.256;2022-12-18T04:15:23;5.88;;;3.90;;
70102;SDS011;57470;50.034;15.256;2022-12-18T04:17:49;8.80;;;5.17;;
70102;SDS011;57470;50.034;15.256;2022-12-18T04:20:15;13.38;;;4.78;;
70102;SDS011;57470;50.034;15.256;2022-12-18T04:22:41;6.28;;;3.05;;
70102;SDS011;57470;50.034;15.256;2022-12-18T04:25:06;6.53;;;3.90;;
70102;SDS011;57470;50.034;15.256;2022-12-18T04:27:32;5.53;;;3.08;;
70102;SDS011;57470;50.034;15.256;2022-12-18T04:29:57;7.90;;;4.37;;
70102;SDS011;57470;50.034;15.256;2022-12-18T04:32:23;7.77;;;4.50;;
70102;SDS011;57470;50.034;15.256;2022-12-18T04:34:48;3.27;;;1.73;;
70102;SDS011;57470;50.034;15.256;2022-12-18T04:37:14;4.35;;;2.15;;
70102;SDS011;57470;50.034;15.256;2022-12-18T04:39:39;6.47;;;3.50;;
70102;SDS011;57470;50.034;15.256;2022-12-18T04:42:05;6.17;;;3.60;;
70102;SDS011;57470;50.034;15.256;2022-12-18T04:44:30;7.97;;;4.17;;
70102;SDS011;57470;50.034;15.256;2022-12-18T04:46:55;4.53;;;2.07;;
70102;SDS011;57470;50.034;15.256;2022-12-18T04:49:21;15.20;;;2.15;;
70102;SDS011;57470;50.034;15.256;2022-12-18T04:51:47;20.60;;;6.30;;
70102;SDS011;57470;50.034;15.256;2022-12-18T04:54:12;4.20;;;2.10;;
70102;SDS011;57470;50.034;15.256;2022-12-18T04:56:37;5.83;;;3.57;;
70102;SDS011;57470;50.034;15.256;2022-12-18T04:59:03;3.43;;;1.47;;
70102;SDS011;57470;50.034;15.256;2022-12-18T05:01:28;6.68;;;3.58;;
70102;SDS011;57470;50.034;15.256;2022-12-18T05:03:53;6.50;;;2.70;;
70102;SDS011;57470;50.034;15.256;2022-12-18T05:06:19;7.77;;;4.10;;
70102;SDS011;57470;50.034;15.256;2022-12-18T05:08:44;4.37;;;2.60;;
70102;SDS011;57470;50.034;15.256;2022-12-18T05:11:11;6.23;;;4.13;;
70102;SDS011;57470;50.034;15.256;2022-12-18T05:13:40;6.97;;;4.03;;
70102;SDS011;57470;50.034;15.256;2022-12-18T05:16:06;4.68;;;2.35;;
70102;SDS011;57470;50.034;15.256;2022-12-18T05:18:32;7.67;;;4.80;;
70102;SDS011;57470;50.034;15.256;2022-12-18T05:20:57;5.65;;;2.78;;
70102;SDS011;57470;50.034;15.256;2022-12-18T05:23:23;8.43;;;4.00;;
70102;SDS011;57470;50.034;15.256;2022-12-18T05:28:22;3.83;;;1.87;;
70102;SDS011;57470;50.034;15.256;2022-12-18T05:30:49;5.03;;;2.53;;
70102;SDS011;57470;50.034;15.256;2022-12-18T05:33:19;4.68;;;1.55;;
70102;SDS011;57470;50.034;15.256;2022-12-18T05:35:56;6.20;;;3.20;;
70102;SDS011;57470;50.034;15.256;2022-12-18T05:38:23;10.93;;;2.80;;
70102;SDS011;57470;50.034;15.256;2022-12-18T05:40:50;8.83;;;2.57;;
70102;SDS011;57470;50.034;15.256;2022-12-18T05:43:17;6.45;;;3.33;;
70102;SDS011;57470;50.034;15.256;2022-12-18T05:45:43;8.90;;;3.50;;
70102;SDS011;57470;50.034;15.256;2022-12-18T05:48:09;9.17;;;5.23;;
70102;SDS011;57470;50.034;15.256;2022-12-18T05:50:37;4.55;;;1.50;;
70102;SDS011;57470;50.034;15.256;2022-12-18T05:53:04;3.53;;;1.88;;
70102;SDS011;57470;50.034;15.256;2022-12-18T05:55:38;7.65;;;1.25;;
70102;SDS011;57470;50.034;15.256;2022-12-18T05:58:05;7.47;;;2.33;;
70102;SDS011;57470;50.034;15.256;2022-12-18T06:00:33;5.37;;;1.87;;
70102;SDS011;57470;50.034;15.256;2022-12-18T06:02:59;4.93;;;2.35;;
70102;SDS011;57470;50.034;15.256;2022-12-18T06:05:25;4.88;;;2.53;;
70102;SDS011;57470;50.034;15.256;2022-12-18T06:07:51;9.10;;;3.40;;
70102;SDS011;57470;50.034;15.256;2022-12-18T06:10:17;5.75;;;3.20;;
70102;SDS011;57470;50.034;15.256;2022-12-18T06:12:42;4.27;;;2.47;;
70102;SDS011;57470;50.034;15.256;2022-12-18T06:15:08;4.13;;;1.37;;
70102;SDS011;57470;50.034;15.256;2022-12-18T06:17:33;5.20;;;2.75;;
70102;SDS011;57470;50.034;15.256;2022-12-18T06:19:59;8.67;;;3.17;;
70102;SDS011;57470;50.034;15.256;2022-12-18T06:22:26;10.32;;;3.20;;
70102;SDS011;57470;50.034;15.256;2022-12-18T06:24:51;9.57;;;5.13;;
70102;SDS011;57470;50.034;15.256;2022-12-18T06:27:16;5.65;;;2.03;;
70102;SDS011;57470;50.034;15.256;2022-12-18T06:29:42;6.17;;;1.97;;
70102;SDS011;57470;50.034;15.256;2022-12-18T06:32:08;7.07;;;3.27;;
70102;SDS011;57470;50.034;15.256;2022-12-18T06:34:33;7.45;;;3.47;;
70102;SDS011;57470;50.034;15.256;2022-12-18T06:37:01;20.20;;;9.33;;
70102;SDS011;57470;50.034;15.256;2022-12-18T06:39:27;9.00;;;4.18;;
70102;SDS011;57470;50.034;15.256;2022-12-18T06:41:52;36.78;;;24.63;;
70102;SDS011;57470;50.034;15.256;2022-12-18T06:44:18;23.57;;;11.53;;
70102;SDS011;57470;50.034;15.256;2022-12-18T06:46:43;33.03;;;18.90;;
70102;SDS011;57470;50.034;15.256;2022-12-18T06:49:08;24.47;;;11.37;;
70102;SDS011;57470;50.034;15.256;2022-12-18T06:51:34;18.50;;;7.38;;
70102;SDS011;57470;50.034;15.256;2022-12-18T06:54:00;24.57;;;15.50;;
70102;SDS011;57470;50.034;15.256;2022-12-18T06:56:25;37.93;;;19.83;;
70102;SDS011;57470;50.034;15.256;2022-12-18T06:58:50;46.03;;;19.40;;
70102;SDS011;57470;50.034;15.256;2022-12-18T07:01:16;22.25;;;12.25;;
70102;SDS011;57470;50.034;15.256;2022-12-18T07:03:43;30.98;;;13.48;;
70102;SDS011;57470;50.034;15.256;2022-12-18T07:06:16;24.80;;;14.68;;
70102;SDS011;57470;50.034;15.256;2022-12-18T07:08:45;10.10;;;5.55;;
70102;SDS011;57470;50.034;15.256;2022-12-18T07:11:12;4.55;;;1.52;;
70102;SDS011;57470;50.034;15.256;2022-12-18T07:13:39;3.95;;;2.45;;
70102;SDS011;57470;50.034;15.256;2022-12-18T07:16:14;5.63;;;2.50;;
70102;SDS011;57470;50.034;15.256;2022-12-18T07:18:41;9.25;;;5.68;;
70102;SDS011;57470;50.034;15.256;2022-12-18T07:21:07;10.53;;;5.67;;
70102;SDS011;57470;50.034;15.256;2022-12-18T07:23:35;6.40;;;3.42;;
70102;SDS011;57470;50.034;15.256;2022-12-18T07:26:02;11.85;;;4.30;;
70102;SDS011;57470;50.034;15.256;2022-12-18T07:28:35;7.10;;;2.93;;
70102;SDS011;57470;50.034;15.256;2022-12-18T07:31:02;7.15;;;3.97;;
70102;SDS011;57470;50.034;15.256;2022-12-18T07:33:28;14.32;;;3.47;;
70102;SDS011;57470;50.034;15.256;2022-12-18T07:35:54;2.60;;;1.17;;
70102;SDS011;57470;50.034;15.256;2022-12-18T07:38:19;8.20;;;3.37;;
70102;SDS011;57470;50.034;15.256;2022-12-18T07:40:45;6.82;;;2.25;;
70102;SDS011;57470;50.034;15.256;2022-12-18T07:43:10;13.50;;;4.00;;
70102;SDS011;57470;50.034;15.256;2022-12-18T07:45:36;6.57;;;1.53;;
70102;SDS011;57470;50.034;15.256;2022-12-18T07:48:01;3.33;;;1.90;;
70102;SDS011;57470;50.034;15.256;2022-12-18T07:50:27;6.07;;;2.43;;
70102;SDS011;57470;50.034;15.256;2022-12-18T07:52:52;7.93;;;3.58;;
70102;SDS011;57470;50.034;15.256;2022-12-18T07:55:17;13.70;;;4.83;;
70102;SDS011;57470;50.034;15.256;2022-12-18T07:57:43;10.53;;;4.83;;
70102;SDS011;57470;50.034;15.256;2022-12-18T08:00:08;4.43;;;2.30;;
70102;SDS011;57470;50.034;15.256;2022-12-18T08:02:34;5.85;;;2.75;;
70102;SDS011;57470;50.034;15.256;2022-12-18T08:04:59;10.13;;;3.33;;
70102;SDS011;57470;50.034;15.256;2022-12-18T08:07:25;4.60;;;2.60;;
70102;SDS011;57470;50.034;15.256;2022-12-18T08:09:50;5.57;;;2.33;;
70102;SDS011;57470;50.034;15.256;2022-12-18T08:12:16;3.22;;;1.90;;
70102;SDS011;57470;50.034;15.256;2022-12-18T08:14:41;9.00;;;4.10;;
70102;SDS011;57470;50.034;15.256;2022-12-18T08:17:06;5.80;;;3.17;;
70102;SDS011;57470;50.034;15.256;2022-12-18T08:19:32;3.73;;;1.80;;
70102;SDS011;57470;50.034;15.256;2022-12-18T08:21:57;4.60;;;1.47;;
70102;SDS011;57470;50.034;15.256;2022-12-18T08:24:22;5.17;;;1.93;;
70102;SDS011;57470;50.034;15.256;2022-12-18T08:26:48;7.17;;;3.00;;
70102;SDS011;57470;50.034;15.256;2022-12-18T08:29:13;5.88;;;2.22;;
70102;SDS011;57470;50.034;15.256;2022-12-18T08:31:39;6.87;;;2.10;;
70102;SDS011;57470;50.034;15.256;2022-12-18T08:34:04;30.10;;;3.57;;
70102;SDS011;57470;50.034;15.256;2022-12-18T08:36:29;25.77;;;7.03;;
70102;SDS011;57470;50.034;15.256;2022-12-18T08:38:55;17.63;;;1.97;;
70102;SDS011;57470;50.034;15.256;2022-12-18T08:41:21;12.25;;;3.65;;
70102;SDS011;57470;50.034;15.256;2022-12-18T08:43:46;14.27;;;4.43;;
70102;SDS011;57470;50.034;15.256;2022-12-18T08:46:32;11.48;;;5.10;;
70102;SDS011;57470;50.034;15.256;2022-12-18T08:49:00;5.00;;;1.25;;
70102;SDS011;57470;50.034;15.256;2022-12-18T08:51:26;5.90;;;2.10;;
70102;SDS011;57470;50.034;15.256;2022-12-18T08:53:51;10.13;;;2.38;;
70102;SDS011;57470;50.034;15.256;2022-12-18T08:56:17;10.10;;;3.17;;
70102;SDS011;57470;50.034;15.256;2022-12-18T08:58:42;2.97;;;0.87;;
70102;SDS011;57470;50.034;15.256;2022-12-18T09:01:09;2.50;;;0.93;;
70102;SDS011;57470;50.034;15.256;2022-12-18T09:03:35;4.55;;;1.65;;
70102;SDS011;57470;50.034;15.256;2022-12-18T09:06:01;4.27;;;1.57;;
70102;SDS011;57470;50.034;15.256;2022-12-18T09:08:27;2.88;;;1.58;;
70102;SDS011;57470;50.034;15.256;2022-12-18T09:10:53;6.85;;;1.90;;
70102;SDS011;57470;50.034;15.256;2022-12-18T09:13:19;5.90;;;2.13;;
70102;SDS011;57470;50.034;15.256;2022-12-18T09:15:46;5.78;;;2.13;;
70102;SDS011;57470;50.034;15.256;2022-12-18T09:18:15;5.38;;;2.45;;
70102;SDS011;57470;50.034;15.256;2022-12-18T09:20:41;3.50;;;2.03;;
70102;SDS011;57470;50.034;15.256;2022-12-18T09:23:08;4.27;;;1.90;;
70102;SDS011;57470;50.034;15.256;2022-12-18T09:25:34;5.18;;;3.13;;
70102;SDS011;57470;50.034;15.256;2022-12-18T09:28:05;9.45;;;3.58;;
70102;SDS011;57470;50.034;15.256;2022-12-18T09:30:31;9.98;;;3.03;;
70102;SDS011;57470;50.034;15.256;2022-12-18T09:33:00;9.23;;;3.55;;
70102;SDS011;57470;50.034;15.256;2022-12-18T09:35:25;3.77;;;1.17;;
70102;SDS011;57470;50.034;15.256;2022-12-18T09:37:52;2.78;;;1.35;;
70102;SDS011;57470;50.034;15.256;2022-12-18T09:40:19;2.13;;;0.73;;
70102;SDS011;57470;50.034;15.256;2022-12-18T09:42:48;3.10;;;1.10;;
70102;SDS011;57470;50.034;15.256;2022-12-18T09:45:20;2.45;;;0.98;;
70102;SDS011;57470;50.034;15.256;2022-12-18T09:47:46;7.05;;;2.85;;
70102;SDS011;57470;50.034;15.256;2022-12-18T09:50:22;4.05;;;2.38;;
70102;SDS011;57470;50.034;15.256;2022-12-18T09:52:53;3.42;;;2.17;;
70102;SDS011;57470;50.034;15.256;2022-12-18T09:55:28;5.88;;;2.40;;
70102;SDS011;57470;50.034;15.256;2022-12-18T10:00:53;8.43;;;4.13;;
70102;SDS011;57470;50.034;15.256;2022-12-18T10:03:19;7.05;;;1.40;;
70102;SDS011;57470;50.034;15.256;2022-12-18T10:14:24;3.97;;;1.40;;
70102;SDS011;57470;50.034;15.256;2022-12-18T10:17:20;5.72;;;1.58;;
70102;SDS011;57470;50.034;15.256;2022-12-18T10:19:50;4.78;;;2.30;;
70102;SDS011;57470;50.034;15.256;2022-12-18T10:25:18;2.65;;;1.35;;
70102;SDS011;57470;50.034;15.256;2022-12-18T10:27:51;2.88;;;1.35;;
70102;SDS011;57470;50.034;15.256;2022-12-18T10:30:21;5.30;;;2.78;;
70102;SDS011;57470;50.034;15.256;2022-12-18T10:32:48;6.25;;;2.20;;
70102;SDS011;57470;50.034;15.256;2022-12-18T10:35:18;4.90;;;3.42;;
70102;SDS011;57470;50.034;15.256;2022-12-18T10:40:31;4.47;;;1.40;;
70102;SDS011;57470;50.034;15.256;2022-12-18T10:43:13;3.72;;;1.55;;
70102;SDS011;57470;50.034;15.256;2022-12-18T10:45:41;3.78;;;1.92;;
70102;SDS011;57470;50.034;15.256;2022-12-18T10:48:22;9.98;;;2.20;;
70102;SDS011;57470;50.034;15.256;2022-12-18T10:50:49;6.33;;;1.90;;
70102;SDS011;57470;50.034;15.256;2022-12-18T10:53:21;12.15;;;2.55;;
70102;SDS011;57470;50.034;15.256;2022-12-18T10:55:50;4.57;;;2.05;;
70102;SDS011;57470;50.034;15.256;2022-12-18T11:03:47;7.53;;;2.20;;
70102;SDS011;57470;50.034;15.256;2022-12-18T11:06:23;4.35;;;1.33;;
70102;SDS011;57470;50.034;15.256;2022-12-18T11:11:25;16.40;;;2.95;;
70102;SDS011;57470;50.034;15.256;2022-12-18T11:16:28;3.80;;;2.37;;
70102;SDS011;57470;50.034;15.256;2022-12-18T11:19:28;19.13;;;2.72;;
70102;SDS011;57470;50.034;15.256;2022-12-18T11:21:58;4.80;;;2.65;;
70102;SDS011;57470;50.034;15.256;2022-12-18T11:24:31;3.95;;;1.80;;
70102;SDS011;57470;50.034;15.256;2022-12-18T11:27:00;4.50;;;2.60;;
70102;SDS011;57470;50.034;15.256;2022-12-18T11:29:35;10.87;;;3.23;;
70102;SDS011;57470;50.034;15.256;2022-12-18T11:32:23;7.32;;;2.88;;
70102;SDS011;57470;50.034;15.256;2022-12-18T11:34:51;7.45;;;2.25;;
70102;SDS011;57470;50.034;15.256;2022-12-18T11:37:23;5.90;;;2.67;;
70102;SDS011;57470;50.034;15.256;2022-12-18T11:39:50;3.75;;;2.20;;
70102;SDS011;57470;50.034;15.256;2022-12-18T11:42:24;9.17;;;3.77;;
70102;SDS011;57470;50.034;15.256;2022-12-18T11:50:12;6.13;;;4.25;;
70102;SDS011;57470;50.034;15.256;2022-12-18T11:52:41;4.03;;;2.25;;
70102;SDS011;57470;50.034;15.256;2022-12-18T11:55:11;4.50;;;2.37;;
70102;SDS011;57470;50.034;15.256;2022-12-18T12:00:12;10.32;;;3.22;;
70102;SDS011;57470;50.034;15.256;2022-12-18T12:11:21;3.00;;;2.05;;
70102;SDS011;57470;50.034;15.256;2022-12-18T12:14:00;6.75;;;2.65;;
70102;SDS011;57470;50.034;15.256;2022-12-18T12:16:43;6.15;;;2.35;;
70102;SDS011;57470;50.034;15.256;2022-12-18T12:19:29;5.40;;;2.90;;
70102;SDS011;57470;50.034;15.256;2022-12-18T12:22:07;6.90;;;3.65;;
70102;SDS011;57470;50.034;15.256;2022-12-18T12:27:23;3.90;;;1.80;;
70102;SDS011;57470;50.034;15.256;2022-12-18T12:38:24;4.65;;;1.75;;
70102;SDS011;57470;50.034;15.256;2022-12-18T12:40:59;7.35;;;3.72;;
70102;SDS011;57470;50.034;15.256;2022-12-18T12:46:10;2.10;;;0.73;;
70102;SDS011;57470;50.034;15.256;2022-12-18T12:48:43;22.13;;;3.13;;
70102;SDS011;57470;50.034;15.256;2022-12-18T12:51:18;3.40;;;1.38;;
70102;SDS011;57470;50.034;15.256;2022-12-18T12:53:46;2.72;;;1.15;;
70102;SDS011;57470;50.034;15.256;2022-12-18T12:56:14;8.93;;;2.15;;
70102;SDS011;57470;50.034;15.256;2022-12-18T13:01:58;5.97;;;3.40;;
70102;SDS011;57470;50.034;15.256;2022-12-18T13:04:41;4.13;;;2.03;;
70102;SDS011;57470;50.034;15.256;2022-12-18T13:07:20;4.88;;;2.33;;
70102;SDS011;57470;50.034;15.256;2022-12-18T13:10:13;7.00;;;2.80;;
70102;SDS011;57470;50.034;15.256;2022-12-18T13:18:10;10.80;;;4.17;;
70102;SDS011;57470;50.034;15.256;2022-12-18T13:20:49;4.97;;;2.42;;
70102;SDS011;57470;50.034;15.256;2022-12-18T13:25:50;11.60;;;4.07;;
70102;SDS011;57470;50.034;15.256;2022-12-18T13:28:18;10.23;;;4.20;;
70102;SDS011;57470;50.034;15.256;2022-12-18T13:30:50;6.03;;;3.05;;
70102;SDS011;57470;50.034;15.256;2022-12-18T13:38:23;10.05;;;4.43;;
70102;SDS011;57470;50.034;15.256;2022-12-18T13:43:50;5.30;;;2.65;;
70102;SDS011;57470;50.034;15.256;2022-12-18T13:48:48;13.15;;;4.10;;
70102;SDS011;57470;50.034;15.256;2022-12-18T13:51:16;12.25;;;4.40;;
70102;SDS011;57470;50.034;15.256;2022-12-18T13:53:43;16.23;;;2.70;;
70102;SDS011;57470;50.034;15.256;2022-12-18T13:56:22;15.95;;;4.35;;
70102;SDS011;57470;50.034;15.256;2022-12-18T13:59:06;6.05;;;2.70;;
70102;SDS011;57470;50.034;15.256;2022-12-18T14:04:18;15.20;;;3.95;;
70102;SDS011;57470;50.034;15.256;2022-12-18T14:06:49;8.07;;;3.10;;
70102;SDS011;57470;50.034;15.256;2022-12-18T14:09:19;3.53;;;1.85;;
70102;SDS011;57470;50.034;15.256;2022-12-18T14:11:49;11.70;;;3.80;;
70102;SDS011;57470;50.034;15.256;2022-12-18T14:14:16;4.03;;;1.27;;
70102;SDS011;57470;50.034;15.256;2022-12-18T14:16:42;4.82;;;1.45;;
70102;SDS011;57470;50.034;15.256;2022-12-18T14:19:16;11.93;;;4.30;;
70102;SDS011;57470;50.034;15.256;2022-12-18T14:21:46;6.18;;;2.72;;
70102;SDS011;57470;50.034;15.256;2022-12-18T14:26:46;5.35;;;2.45;;
70102;SDS011;57470;50.034;15.256;2022-12-18T14:29:26;6.82;;;3.30;;
70102;SDS011;57470;50.034;15.256;2022-12-18T14:34:45;7.28;;;2.80;;
70102;SDS011;57470;50.034;15.256;2022-12-18T14:37:16;4.90;;;1.67;;
70102;SDS011;57470;50.034;15.256;2022-12-18T14:39:53;2.97;;;0.82;;
70102;SDS011;57470;50.034;15.256;2022-12-18T14:42:29;9.73;;;3.70;;
70102;SDS011;57470;50.034;15.256;2022-12-18T14:47:58;8.95;;;3.30;;
70102;SDS011;57470;50.034;15.256;2022-12-18T14:50:25;7.00;;;4.43;;
70102;SDS011;57470;50.034;15.256;2022-12-18T14:52:51;12.17;;;3.43;;
70102;SDS011;57470;50.034;15.256;2022-12-18T14:55:17;10.65;;;4.55;;
70102;SDS011;57470;50.034;15.256;2022-12-18T14:57:44;12.13;;;4.88;;
70102;SDS011;57470;50.034;15.256;2022-12-18T15:00:17;8.45;;;5.13;;
70102;SDS011;57470;50.034;15.256;2022-12-18T15:02:45;3.67;;;2.08;;
70102;SDS011;57470;50.034;15.256;2022-12-18T15:05:18;8.45;;;4.15;;
70102;SDS011;57470;50.034;15.256;2022-12-18T15:07:55;7.63;;;3.72;;
70102;SDS011;57470;50.034;15.256;2022-12-18T15:10:32;10.27;;;3.28;;
70102;SDS011;57470;50.034;15.256;2022-12-18T15:15:47;6.80;;;3.63;;
70102;SDS011;57470;50.034;15.256;2022-12-18T15:18:12;9.48;;;2.90;;
70102;SDS011;57470;50.034;15.256;2022-12-18T15:23:23;9.32;;;3.30;;
70102;SDS011;57470;50.034;15.256;2022-12-18T15:26:02;11.70;;;4.85;;
70102;SDS011;57470;50.034;15.256;2022-12-18T15:36:22;4.70;;;2.30;;
70102;SDS011;57470;50.034;15.256;2022-12-18T15:38:49;5.03;;;2.90;;
70102;SDS011;57470;50.034;15.256;2022-12-18T15:41:16;7.15;;;2.38;;
70102;SDS011;57470;50.034;15.256;2022-12-18T15:43:44;5.47;;;2.92;;
70102;SDS011;57470;50.034;15.256;2022-12-18T15:46:11;5.47;;;2.87;;
70102;SDS011;57470;50.034;15.256;2022-12-18T15:48:39;4.22;;;1.98;;
70102;SDS011;57470;50.034;15.256;2022-12-18T15:51:17;7.15;;;3.65;;
70102;SDS011;57470;50.034;15.256;2022-12-18T15:53:45;11.68;;;4.50;;
70102;SDS011;57470;50.034;15.256;2022-12-18T15:56:11;4.80;;;2.40;;
70102;SDS011;57470;50.034;15.256;2022-12-18T15:58:57;5.83;;;2.50;;
70102;SDS011;57470;50.034;15.256;2022-12-18T16:01:24;4.53;;;2.25;;
70102;SDS011;57470;50.034;15.256;2022-12-18T16:03:51;2.20;;;0.60;;
70102;SDS011;57470;50.034;15.256;2022-12-18T16:06:18;5.25;;;2.25;;
70102;SDS011;57470;50.034;15.256;2022-12-18T16:08:43;10.40;;;4.43;;
70102;SDS011;57470;50.034;15.256;2022-12-18T16:11:23;9.00;;;2.77;;
70102;SDS011;57470;50.034;15.256;2022-12-18T16:16:55;10.00;;;4.63;;
70102;SDS011;57470;50.034;15.256;2022-12-18T16:19:25;8.63;;;2.80;;
70102;SDS011;57470;50.034;15.256;2022-12-18T16:21:52;6.45;;;1.67;;
70102;SDS011;57470;50.034;15.256;2022-12-18T16:24:24;6.47;;;4.18;;
70102;SDS011;57470;50.034;15.256;2022-12-18T16:26:56;5.93;;;3.50;;
70102;SDS011;57470;50.034;15.256;2022-12-18T16:29:23;4.03;;;1.75;;
70102;SDS011;57470;50.034;15.256;2022-12-18T16:31:52;6.28;;;2.47;;
70102;SDS011;57470;50.034;15.256;2022-12-18T16:34:19;15.80;;;6.22;;
70102;SDS011;57470;50.034;15.256;2022-12-18T16:36:51;6.57;;;3.70;;
70102;SDS011;57470;50.034;15.256;2022-12-18T16:39:18;6.00;;;2.50;;
70102;SDS011;57470;50.034;15.256;2022-12-18T16:41:44;3.75;;;1.80;;
70102;SDS011;57470;50.034;15.256;2022-12-18T16:44:09;3.40;;;2.10;;
70102;SDS011;57470;50.034;15.256;2022-12-18T16:46:36;11.07;;;4.77;;
70102;SDS011;57470;50.034;15.256;2022-12-18T16:49:02;5.50;;;1.45;;
70102;SDS011;57470;50.034;15.256;2022-12-18T16:51:28;7.47;;;3.83;;
70102;SDS011;57470;50.034;15.256;2022-12-18T16:53:54;5.63;;;2.77;;
70102;SDS011;57470;50.034;15.256;2022-12-18T16:56:23;8.27;;;3.38;;
70102;SDS011;57470;50.034;15.256;2022-12-18T16:58:50;5.93;;;3.15;;
70102;SDS011;57470;50.034;15.256;2022-12-18T17:01:19;4.43;;;1.20;;
70102;SDS011;57470;50.034;15.256;2022-12-18T17:03:50;11.30;;;4.18;;
70102;SDS011;57470;50.034;15.256;2022-12-18T17:06:20;8.73;;;2.00;;